createdAt,value
2023-05-07T00:04:03.287Z,25.3
2023-05-07T00:19:13.258Z,25.8
2023-05-07T00:34:24.492Z,23.1
2023-05-07T00:49:35.270Z,27.1
2023-05-07T01:04:45.520Z,24.4
2023-05-07T01:19:55.787Z,27.1
2023-05-07T01:35:06.799Z,28.2
2023-05-07T01:50:16.029Z,27.8
2023-05-07T02:05:25.795Z,28.2
2023-05-07T02:20:35.790Z,27
2023-05-07T02:35:46.004Z,20.2
2023-05-07T02:50:55.809Z,18.4
2023-05-07T03:06:05.597Z,16
2023-05-07T03:21:15.485Z,18.8
2023-05-07T03:36:25.764Z,13.4
2023-05-07T03:51:35.675Z,16.1
2023-05-07T04:06:45.987Z,15.9
2023-05-07T04:21:55.852Z,12.3
2023-05-07T04:37:05.271Z,10.9
2023-05-07T04:52:15.060Z,12.4
2023-05-07T05:07:25.597Z,12.1
2023-05-07T05:22:36.230Z,13.5
2023-05-07T05:37:47.062Z,13.7
2023-05-07T05:52:57.002Z,13.5
2023-05-07T06:08:07.478Z,10.1
2023-05-07T06:23:18.902Z,10.9
2023-05-07T06:38:29.468Z,11.7
2023-05-07T06:53:39.583Z,9.8
2023-05-07T07:08:50.028Z,9.8
2023-05-07T07:24:00.378Z,9.8
2023-05-07T07:39:10.204Z,13.8
2023-05-07T07:54:20.778Z,13.1
2023-05-07T08:09:30.712Z,12
2023-05-07T08:24:40.741Z,13
2023-05-07T08:39:51.062Z,10.4
2023-05-07T08:55:01.298Z,11.6
2023-05-07T09:10:12.574Z,10.5
2023-05-07T09:25:23.416Z,10.3
2023-05-07T09:40:34.072Z,11.9
2023-05-07T09:55:44.206Z,11.2
2023-05-07T10:10:55.439Z,15.8
2023-05-07T10:26:05.631Z,14.7
2023-05-07T10:41:15.557Z,11.8
2023-05-07T10:56:26.997Z,10.7
2023-05-07T11:11:37.289Z,14.4
2023-05-07T11:26:47.611Z,9.9
2023-05-07T11:41:57.966Z,9
2023-05-07T11:57:08.260Z,8.7
2023-05-07T12:12:18.402Z,7.8
2023-05-07T12:27:28.728Z,8.2
2023-05-07T12:42:38.879Z,8.6
2023-05-07T12:57:49.017Z,6.7
2023-05-07T13:12:59.022Z,6.5
2023-05-07T13:28:12.150Z,5.9
2023-05-07T13:43:25.973Z,5.8
2023-05-07T13:58:59.822Z,7.5
2023-05-07T14:14:12.109Z,8.1
2023-05-07T14:29:24.699Z,7.4
2023-05-07T14:44:33.812Z,7
2023-05-07T14:59:44.101Z,6.6
2023-05-07T15:14:54.814Z,7.1
2023-05-07T15:30:04.440Z,5.9
2023-05-07T15:45:14.480Z,7.8
2023-05-07T16:00:26.500Z,6.5
2023-05-07T16:15:36.695Z,6.2
2023-05-07T16:30:47.083Z,10.8
2023-05-07T16:45:56.077Z,7.2
2023-05-07T17:01:05.076Z,8.1
2023-05-07T17:16:14.502Z,8.2
2023-05-07T17:31:27.215Z,9.8
2023-05-07T17:46:37.265Z,7.7
2023-05-07T18:01:46.766Z,6.6
2023-05-07T18:16:57.115Z,7.5
2023-05-07T18:32:06.349Z,7.3
2023-05-07T18:47:16.149Z,7.4
2023-05-07T19:02:26.160Z,7
2023-05-07T19:17:36.013Z,7.7
2023-05-07T19:32:46.164Z,6.9
2023-05-07T19:47:55.985Z,7.4
2023-05-07T20:03:06.316Z,6.5
2023-05-07T20:18:16.357Z,6.4
2023-05-07T20:33:26.969Z,6.2
2023-05-07T20:48:36.264Z,6.1
2023-05-07T21:03:45.769Z,6.4
2023-05-07T21:18:55.455Z,6.6
2023-05-07T21:34:05.037Z,6.7
2023-05-07T21:49:14.523Z,7.4
2023-05-07T22:04:26.893Z,7.9
2023-05-07T22:19:36.860Z,8
2023-05-07T22:34:46.647Z,8.7
2023-05-07T22:49:56.290Z,9
2023-05-07T23:05:06.003Z,12.8
2023-05-07T23:20:15.574Z,9.8
2023-05-07T23:35:27.087Z,10.2
2023-05-07T23:50:36.373Z,8.3
